Time;durP1;ratioP1;P1;durP2;ratioP2;P2;SDS_P1;SDS_P2;PMS_P1;PMS_P2;Temp;Humidity;BMP_temperature;BMP_pressure;BME280_temperature;BME280_humidity;BME280_pressure;Samples;Min_cycle;Max_cycle;Signal;HPM_P1;HPM_P2
2022/02/03 00:02:15;;;;;;;31.87;14.23;;;;;;;1.34;100.00;148007.25;1763283;81;21183;-62
2022/02/03 00:04:30;;;;;;;35.55;14.60;;;;;;;1.34;100.00;148005.98;1762205;80;21504;-62
2022/02/03 00:06:59;;;;;;;30.17;12.88;;;;;;;1.32;100.00;148000.78;1759651;79;21543;-62
2022/02/03 00:09:54;;;;;;;30.45;12.93;;;;;;;1.31;100.00;147999.53;1800469;79;21027;-62
2022/02/03 00:25:28;;;;;;;35.03;14.25;;;;;;;1.35;100.00;148009.81;1763625;81;21072;-61
2022/02/03 00:28:16;;;;;;;30.57;13.60;;;;;;;1.37;100.00;148014.97;1763088;81;20996;-60
2022/02/03 00:33:16;;;;;;;34.15;14.65;;;;;;;1.37;100.00;148013.72;1780516;79;21031;-61
2022/02/03 00:49:14;;;;;;;27.62;12.85;;;;;;;1.27;100.00;147989.23;1814857;78;20991;-61
2022/02/03 00:51:45;;;;;;;28.40;12.37;;;;;;;1.24;100.00;147981.50;1800660;79;21501;-61
2022/02/03 00:54:10;;;;;;;24.18;11.95;;;;;;;1.23;100.00;147978.94;1746831;81;21092;-62
2022/02/03 00:56:41;;;;;;;26.85;12.43;;;;;;;1.23;100.00;147980.19;1735772;82;21810;-60
2022/02/03 00:59:11;;;;;;;28.35;12.05;;;;;;;1.21;100.00;147973.73;1735109;79;21107;-63
2022/02/03 01:01:41;;;;;;;26.45;12.88;;;;;;;1.19;100.00;147968.59;1761069;81;21087;-61
2022/02/03 01:04:10;;;;;;;29.35;12.37;;;;;;;1.14;100.00;147958.28;1791925;79;20936;-61
2022/02/03 01:06:49;;;;;;;31.23;13.15;;;;;;;1.18;100.00;147967.31;1740417;80;20942;-60
2022/02/03 01:09:10;;;;;;;26.95;11.95;;;;;;;1.23;100.00;147978.94;1723306;82;21803;-60
2022/02/03 01:11:41;;;;;;;29.92;13.00;;;;;;;1.27;100.00;147989.23;1736140;81;21061;-60
2022/02/03 01:19:24;;;;;;;27.95;13.03;;;;;;;1.23;100.00;147980.19;1810711;79;20971;-61
2022/02/03 01:33:22;;;;;;;29.75;13.22;;;;;;;1.25;100.00;147984.08;1813364;78;20940;-62
2022/02/03 01:43:28;;;;;;;39.33;17.05;;;;;;;1.24;100.00;147981.50;1787295;79;21078;-60
2022/02/03 01:45:52;;;;;;;36.13;16.35;;;;;;;1.21;100.00;147973.73;1773685;79;21027;-62
2022/02/03 01:53:43;;;;;;;35.92;15.38;;;;;;;1.27;100.00;147989.23;1777380;78;21067;-61
2022/02/03 01:56:19;;;;;;;34.60;15.83;;;;;;;1.24;100.00;147982.77;1775503;80;21497;-60
2022/02/03 01:58:52;;;;;;;33.02;14.90;;;;;;;1.25;100.00;147984.08;1776098;79;21031;-63
2022/02/03 02:01:28;;;;;;;29.60;14.35;;;;;;;1.24;100.00;147982.77;1779556;79;21127;-62
2022/02/03 02:04:11;;;;;;;31.45;14.43;;;;;;;1.27;100.00;147989.23;1775921;78;20995;-62
2022/02/03 02:07:19;;;;;;;32.10;15.15;;;;;;;1.26;100.00;147986.66;1828428;78;21394;-63
2022/02/03 02:13:06;;;;;;;38.35;16.65;;;;;;;1.23;100.00;147978.94;1779767;79;20993;-61
2022/02/03 02:15:54;;;;;;;34.08;15.10;;;;;;;1.21;100.00;147975.05;1779860;79;21139;-60
2022/02/03 02:43:10;;;;;;;31.20;14.85;;;;;;;1.26;100.00;147987.91;1801779;79;21720;-61
2022/02/03 02:45:58;;;;;;;56.15;15.90;;;;;;;1.26;100.00;147986.66;1800555;79;20978;-62
2022/02/03 02:48:56;;;;;;;35.38;14.18;;;;;;;1.26;100.00;147987.91;1774057;79;21017;-61
2022/02/03 02:51:34;;;;;;;32.83;14.33;;;;;;;1.25;100.00;147984.08;1781561;79;21052;-62
2022/02/03 03:31:13;;;;;;;43.15;18.45;;;;;;;1.14;100.00;147958.28;1790431;78;21425;-60
2022/02/03 03:35:55;;;;;;;47.20;20.08;;;;;;;1.06;100.00;147937.69;1772867;80;21048;-60
2022/02/03 03:38:23;;;;;;;41.08;18.37;;;;;;;1.00;100.00;147923.52;1748667;82;21135;-61
2022/02/03 03:40:53;;;;;;;40.90;17.67;;;;;;;0.97;100.00;147914.48;1771423;80;20982;-60
2022/02/03 03:43:41;;;;;;;37.78;16.67;;;;;;;0.94;100.00;147906.77;1800387;79;21060;-62
2022/02/03 03:46:22;;;;;;;33.18;14.93;;;;;;;0.93;100.00;147904.19;1778852;80;21059;-63
2022/02/03 03:49:29;;;;;;;33.65;14.47;;;;;;;0.93;100.00;147904.19;1779473;80;21068;-63
2022/02/03 03:52:14;;;;;;;35.75;15.25;;;;;;;0.94;100.00;147908.06;1794000;79;21132;-62
2022/02/03 03:54:44;;;;;;;33.73;14.68;;;;;;;0.95;100.00;147909.33;1806205;79;21060;-62
2022/02/03 03:57:22;;;;;;;26.95;12.70;;;;;;;0.95;100.00;147909.33;1780826;79;21706;-62
2022/02/03 04:34:33;;;;;;;33.83;14.80;;;;;;;0.79;100.00;147870.73;1803210;79;21102;-60
2022/02/03 05:03:54;;;;;;;31.77;13.95;;;;;;;0.67;100.00;147841.11;1761256;80;21104;-60
2022/02/03 05:06:51;;;;;;;28.05;12.98;;;;;;;0.66;100.00;147837.23;1771237;80;21076;-60
2022/02/03 05:12:49;;;;;;;29.18;14.28;;;;;;;0.70;100.00;147847.52;1791755;79;21567;-61
2022/02/03 05:18:41;;;;;;;30.80;13.18;;;;;;;0.68;100.00;147842.38;1789654;78;21054;-61
2022/02/03 05:25:41;;;;;;;31.65;13.83;;;;;;;0.70;100.00;147847.52;1784053;79;21031;-60
2022/02/03 05:42:31;;;;;;;;;;;;;;;0.62;100.00;147826.94;1767471;80;21059;-62
2022/02/03 05:50:31;;;;;;;32.73;13.62;;;;;;;0.61;100.00;147824.37;1790509;78;21040;-62
2022/02/03 06:01:10;;;;;;;36.28;15.83;;;;;;;0.58;100.00;147816.64;1819978;78;26098;-62
2022/02/03 06:09:23;;;;;;;34.50;14.87;;;;;;;0.70;100.00;147847.52;1789936;78;21327;-63
2022/02/03 06:12:17;;;;;;;31.27;14.58;;;;;;;0.72;100.00;147852.67;1805368;78;21016;-62
2022/02/03 06:14:28;;;;;;;30.77;14.65;;;;;;;0.73;100.00;147855.25;1766419;80;21126;-62
2022/02/03 06:22:23;;;;;;;32.65;14.98;;;;;;;0.84;100.00;147883.59;1742127;81;21044;-62
2022/02/03 06:27:38;;;;;;;36.35;15.95;;;;;;;0.93;100.00;147904.19;1774684;80;21582;-62
2022/02/03 06:29:56;;;;;;;30.88;14.80;;;;;;;0.95;100.00;147909.33;1802348;79;21715;-61
2022/02/03 06:32:24;;;;;;;33.20;14.55;;;;;;;0.99;100.00;147919.63;1780781;79;21072;-61
2022/02/03 06:34:50;;;;;;;40.03;16.20;;;;;;;1.02;100.00;147927.41;1802618;79;20958;-63
2022/02/03 06:37:19;;;;;;;32.80;15.63;;;;;;;1.07;100.00;147940.27;1802033;79;21615;-61
2022/02/03 06:39:48;;;;;;;42.33;16.65;;;;;;;1.12;99.97;147953.14;1799841;79;21129;-62
2022/02/03 06:42:14;;;;;;;37.13;15.63;;;;;;;1.17;99.70;147963.44;1775549;79;21015;-61
2022/02/03 06:44:49;;;;;;;32.23;15.28;;;;;;;1.18;99.30;147966.02;1764681;81;21386;-60
2022/02/03 06:47:20;;;;;;;38.35;17.23;;;;;;;1.19;99.01;147968.59;1778300;79;21052;-61
2022/02/03 06:49:58;;;;;;;33.63;15.30;;;;;;;1.18;98.98;147967.31;1800814;79;21020;-63
2022/02/03 06:52:39;;;;;;;32.53;14.73;;;;;;;1.19;98.91;147969.89;1800781;79;21854;-61
2022/02/03 06:57:36;;;;;;;38.08;17.12;;;;;;;1.22;98.83;147977.63;1749404;81;21081;-62
2022/02/03 07:00:00;;;;;;;38.30;17.55;;;;;;;1.27;98.94;147989.23;1730734;81;21053;-62
2022/02/03 07:02:29;;;;;;;38.42;17.65;;;;;;;1.31;98.95;147999.53;1730207;82;21132;-63
2022/02/03 07:04:56;;;;;;;35.17;16.62;;;;;;;1.34;98.90;148007.25;1738020;82;21130;-62
2022/02/03 07:07:25;;;;;;;36.28;15.43;;;;;;;1.40;98.85;148021.44;1722748;81;21100;-62
2022/02/03 07:09:53;;;;;;;36.53;15.32;;;;;;;1.43;98.71;148030.42;1736130;81;21747;-62
2022/02/03 07:12:22;;;;;;;30.55;14.47;;;;;;;1.46;98.50;148035.62;1728470;81;21541;-65
2022/02/03 07:14:49;;;;;;;36.73;14.53;;;;;;;1.51;98.37;148048.50;1732619;81;21084;-63
2022/02/03 07:17:18;;;;;;;36.45;14.83;;;;;;;1.56;98.13;148061.37;1727172;81;21142;-63
2022/02/03 07:19:49;;;;;;;31.80;14.33;;;;;;;1.61;98.13;148074.23;1706873;82;21282;-62
2022/02/03 07:22:15;;;;;;;28.25;13.00;;;;;;;1.66;97.90;148085.86;1783759;79;21082;-62
2022/02/03 07:24:45;;;;;;;34.23;15.08;;;;;;;1.71;97.87;148100.05;1783906;78;21091;-64
2022/02/03 07:27:11;;;;;;;32.23;15.10;;;;;;;1.76;97.71;148111.61;1787803;78;21509;-63
2022/02/03 07:29:38;;;;;;;31.60;14.23;;;;;;;1.79;97.38;148119.39;1791805;78;21467;-61
2022/02/03 07:32:07;;;;;;;35.55;14.70;;;;;;;1.80;97.27;148121.97;1782072;78;21074;-62
2022/02/03 07:34:39;;;;;;;39.45;15.50;;;;;;;1.84;97.28;148132.27;1792679;79;21041;-62
2022/02/03 07:37:06;;;;;;;32.03;14.47;;;;;;;1.89;96.83;148142.56;1771492;78;21086;-62
2022/02/03 07:39:34;;;;;;;32.67;16.25;;;;;;;1.90;96.36;148146.45;1799430;78;21568;-62
2022/02/03 07:42:01;;;;;;;35.73;15.25;;;;;;;1.89;95.89;148143.88;1799431;78;21214;-63
2022/02/03 07:44:28;;;;;;;28.57;13.85;;;;;;;1.86;96.21;148136.09;1793978;78;21050;-63
2022/02/03 07:46:57;;;;;;;44.08;18.67;;;;;;;1.90;96.22;148146.45;1796515;78;21581;-62
2022/02/03 07:49:24;;;;;;;100.92;46.65;;;;;;;1.92;96.22;148151.59;1800789;78;21069;-62
2022/02/03 07:51:52;;;;;;;74.22;36.65;;;;;;;1.93;95.92;148154.17;1797667;78;21081;-62
2022/02/03 07:54:19;;;;;;;95.03;43.40;;;;;;;1.98;96.02;148165.75;1798309;78;21126;-64
2022/02/03 07:56:46;;;;;;;117.67;52.75;;;;;;;2.00;96.26;148172.22;1758223;79;21836;-60
2022/02/03 07:59:13;;;;;;;63.23;31.20;;;;;;;2.06;96.01;148185.09;1797669;78;21044;-62
2022/02/03 08:01:40;;;;;;;113.77;49.70;;;;;;;2.10;96.03;148196.70;1784945;79;21094;-62
2022/02/03 08:04:09;;;;;;;75.30;33.25;;;;;;;2.14;95.25;148205.75;1745633;80;21033;-62
2022/02/03 08:06:41;;;;;;;98.05;39.03;;;;;;;2.16;95.07;148210.91;1793307;79;21134;-61
2022/02/03 08:09:10;;;;;;;114.47;46.83;;;;;;;2.21;95.10;148223.78;1788175;78;21119;-60
2022/02/03 08:11:42;;;;;;;69.87;29.98;;;;;;;2.23;94.51;148227.67;1787561;78;21068;-61
2022/02/03 08:14:12;;;;;;;59.35;25.25;;;;;;;2.26;94.42;148236.66;1787079;78;21613;-62
2022/02/03 08:16:43;;;;;;;74.95;33.38;;;;;;;2.32;94.73;148249.55;1782684;78;21049;-64
2022/02/03 08:19:21;;;;;;;68.42;31.37;;;;;;;2.38;94.57;148266.31;1813392;78;21050;-62
2022/02/03 08:21:45;;;;;;;46.50;19.75;;;;;;;2.45;94.49;148283.09;1794921;78;26609;-62
2022/02/03 08:26:47;;;;;;;118.35;51.85;;;;;;;2.53;93.12;148303.70;1801331;78;21395;-62
2022/02/03 08:29:28;;;;;;;50.52;23.12;;;;;;;2.56;93.28;148310.17;1806512;78;20901;-63
2022/02/03 08:31:53;;;;;;;104.25;46.68;;;;;;;2.61;92.91;148321.80;1808174;78;21676;-63
2022/02/03 08:34:34;;;;;;;73.67;33.23;;;;;;;2.60;92.03;148320.48;1806509;78;21055;-64
2022/02/03 08:36:48;;;;;;;61.30;26.97;;;;;;;2.63;92.37;148326.95;1810863;78;21035;-63
2022/02/03 08:39:19;;;;;;;33.98;15.05;;;;;;;2.66;91.87;148334.69;1775963;80;21428;-61
2022/02/03 08:41:43;;;;;;;97.90;41.02;;;;;;;2.67;91.63;148337.27;1774740;80;21076;-61
2022/02/03 08:44:10;;;;;;;73.22;31.75;;;;;;;2.68;91.75;148339.84;1772065;80;21981;-61
2022/02/03 08:46:36;;;;;;;120.22;47.45;;;;;;;2.71;91.70;148347.56;1755821;81;21066;-63
2022/02/03 08:49:22;;;;;;;144.40;63.38;;;;;;;2.74;91.84;148355.31;1750792;80;21132;-62
2022/02/03 08:51:47;;;;;;;204.93;91.02;;;;;;;2.73;91.56;148352.72;1756745;80;21064;-62
2022/02/03 08:54:14;;;;;;;158.12;69.00;;;;;;;2.77;91.87;148361.77;1762829;80;21080;-63
2022/02/03 08:57:02;;;;;;;48.75;22.73;;;;;;;2.83;91.33;148377.23;1775720;80;21117;-62
2022/02/03 09:51:34;;;;;;;34.15;13.98;;;;;;;3.34;85.88;148503.72;1795621;79;21533;-59
2022/02/03 09:56:28;;;;;;;;;;;;;;;3.37;86.36;148512.72;1810348;79;21054;-61
2022/02/03 09:58:41;;;;;;;21.40;9.93;;;;;;;3.41;86.16;148523.03;1784934;79;20248;-61
2022/02/03 10:01:10;;;;;;;25.57;12.45;;;;;;;3.47;85.91;148535.97;1795518;79;21021;-62
2022/02/03 10:06:22;;;;;;;69.17;30.62;;;;;;;3.60;85.65;148569.50;1803952;79;21056;-62
2022/02/03 10:08:53;;;;;;;123.97;58.50;;;;;;;3.66;85.26;148583.72;1806950;79;21440;-62
2022/02/03 10:11:23;;;;;;;127.85;57.93;;;;;;;3.73;85.32;148603.09;1794085;78;21100;-60
2022/02/03 10:13:58;;;;;;;44.20;22.27;;;;;;;3.83;83.94;148627.61;1804698;79;21015;-62
2022/02/03 10:16:31;;;;;;;15.85;7.87;;;;;;;3.92;82.68;148649.56;1798946;79;21629;-61
2022/02/03 10:19:15;;;;;;;81.25;40.73;;;;;;;3.92;82.68;148649.56;1789847;78;21032;-61
2022/02/03 10:21:47;;;;;;;66.02;32.20;;;;;;;3.97;82.69;148661.16;1801884;79;21047;-61
2022/02/03 10:24:16;;;;;;;53.50;25.15;;;;;;;4.01;81.64;148672.78;1802253;79;21044;-61
2022/02/03 10:26:49;;;;;;;32.80;15.10;;;;;;;4.01;80.59;148672.78;1798410;79;21025;-61
2022/02/03 10:29:21;;;;;;;82.78;39.50;;;;;;;3.98;80.56;148665.05;1789035;79;21436;-63
2022/02/03 10:31:48;;;;;;;24.67;11.97;;;;;;;3.99;81.04;148667.63;1789069;79;21488;-63
2022/02/03 10:34:22;;;;;;;37.85;17.00;;;;;;;4.01;81.01;148672.78;1790308;78;21107;-63
2022/02/03 10:48:12;;;;;;;66.07;32.58;;;;;;;4.13;80.80;148701.22;1784807;79;26611;-62
2022/02/03 10:58:27;;;;;;;40.78;21.85;;;;;;;4.24;78.93;148729.61;1803966;78;21930;-62
2022/02/03 11:03:30;;;;;;;108.25;46.23;;;;;;;4.26;78.39;148734.77;1801271;78;21018;-61
2022/02/03 11:06:05;;;;;;;137.70;58.48;;;;;;;4.30;78.48;148745.09;1801507;78;20995;-62
2022/02/03 11:08:32;;;;;;;35.30;15.85;;;;;;;4.30;78.48;148745.09;1804032;78;21533;-63
2022/02/03 11:10:59;;;;;;;86.17;38.17;;;;;;;4.44;79.02;148778.69;1803874;79;20955;-62
2022/02/03 11:13:30;;;;;;;98.97;47.93;;;;;;;4.44;79.02;148778.69;1732196;81;21147;-61
2022/02/03 11:15:55;;;;;;;177.75;85.00;;;;;;;4.53;78.03;148801.97;1740713;82;21021;-63
2022/02/03 11:18:24;;;;;;;119.05;55.25;;;;;;;4.56;76.31;148809.72;1802449;78;21476;-61
2022/02/03 11:20:52;;;;;;;92.95;43.68;;;;;;;4.59;75.86;148817.45;1807889;78;21766;-61
2022/02/03 11:23:46;;;;;;;54.40;26.52;;;;;;;4.62;75.25;148822.63;1803313;79;21083;-63
2022/02/03 11:33:47;;;;;;;67.97;28.65;;;;;;;4.68;70.40;148838.11;1797176;78;21917;-61
2022/02/03 11:47:08;;;;;;;119.70;54.03;;;;;;;4.84;69.69;148878.16;1736833;80;21986;-61
2022/02/03 12:00:45;;;;;;;145.60;69.72;;;;;;;4.84;69.23;148878.16;1799274;78;21815;-63
2022/02/03 12:11:26;;;;;;;159.32;68.65;;;;;;;5.01;69.55;148920.81;1799762;78;21334;-63
2022/02/03 12:16:46;;;;;;;38.35;17.70;;;;;;;4.91;67.18;148896.27;1800924;78;21640;-62
2022/02/03 12:19:27;;;;;;;166.62;69.12;;;;;;;4.83;66.74;148876.88;1785468;79;21465;-63
2022/02/03 12:22:21;;;;;;;132.43;58.78;;;;;;;4.78;66.87;148863.97;1791763;79;21606;-63
2022/02/03 12:27:50;;;;;;;92.60;43.20;;;;;;;4.68;65.08;148838.11;1791048;79;21068;-62
2022/02/03 12:30:24;;;;;;;170.15;71.40;;;;;;;4.76;63.91;148858.81;1792039;79;21049;-63
2022/02/03 12:33:15;;;;;;;115.40;51.23;;;;;;;4.76;63.91;148858.81;1789499;79;21092;-63
2022/02/03 12:43:27;;;;;;;103.42;47.15;;;;;;;4.81;64.64;148871.72;1791096;78;21052;-62
2022/02/03 12:45:37;;;;;;;100.18;43.90;;;;;;;4.80;64.49;148869.12;1785381;78;21071;-62
2022/02/03 12:48:06;;;;;;;149.45;59.70;;;;;;;4.72;64.57;148849.75;1789489;79;21071;-63
2022/02/03 12:50:35;;;;;;;22.95;11.10;;;;;;;4.69;65.29;148840.69;1784035;79;21092;-62
2022/02/03 12:53:04;;;;;;;10.65;5.08;;;;;;;4.67;65.26;148836.84;1786290;79;21696;-62
2022/02/03 12:55:37;;;;;;;126.05;52.13;;;;;;;4.65;65.36;148830.36;1791677;79;21107;-62
2022/02/03 12:58:17;;;;;;;57.98;26.30;;;;;;;4.61;65.40;148821.30;1793338;78;21041;-62
2022/02/03 13:00:57;;;;;;;60.28;23.12;;;;;;;4.56;66.57;148809.72;1794135;78;20917;-62
2022/02/03 13:03:33;;;;;;;83.17;37.50;;;;;;;4.56;66.57;148809.72;1792202;78;21116;-62
2022/02/03 13:06:03;;;;;;;;;;;;;;;4.56;66.76;148809.72;1787661;78;22360;-62
2022/02/03 13:08:44;;;;;;;38.75;18.60;;;;;;;4.53;65.90;148801.97;1787661;77;20262;-62
2022/02/03 13:11:39;;;;;;;277.22;125.18;;;;;;;4.50;66.20;148794.17;1787791;78;21107;-62
2022/02/03 13:16:59;;;;;;;25.23;12.07;;;;;;;4.38;66.68;148763.20;1780279;79;21128;-61
2022/02/03 13:19:42;;;;;;;12.85;5.33;;;;;;;4.38;66.68;148763.20;1785974;78;21201;-63
2022/02/03 13:27:41;;;;;;;16.27;7.30;;;;;;;4.20;66.66;148717.97;1722525;81;21111;-61
2022/02/03 13:32:34;;;;;;;18.35;9.03;;;;;;;4.04;66.98;148677.95;1725125;81;21144;-59
2022/02/03 13:35:03;;;;;;;14.75;5.40;;;;;;;3.99;67.54;148667.63;1724132;81;21077;-61
2022/02/03 13:37:36;;;;;;;17.05;7.80;;;;;;;3.95;67.59;148657.31;1720829;82;21042;-60
2022/02/03 13:40:10;;;;;;;11.18;5.45;;;;;;;3.93;67.61;148652.16;1789264;79;21028;-65
2022/02/03 13:42:43;;;;;;;23.10;11.43;;;;;;;3.86;67.32;148634.05;1792047;78;21008;-62
2022/02/03 13:45:09;;;;;;;14.00;5.72;;;;;;;3.78;67.86;148613.41;1786691;78;21127;-61
2022/02/03 13:47:36;;;;;;;14.60;7.00;;;;;;;3.72;68.25;148599.19;1757019;80;21072;-62
2022/02/03 13:50:20;;;;;;;15.70;5.60;;;;;;;3.65;68.57;148582.45;1760157;79;21057;-61
2022/02/03 13:52:51;;;;;;;11.97;6.15;;;;;;;3.60;68.77;148568.25;1792174;79;21084;-61
2022/02/03 14:10:43;;;;;;;63.50;29.60;;;;;;;3.24;70.32;148480.45;1782732;79;21052;-61
2022/02/03 14:21:02;;;;;;;172.55;69.12;;;;;;;3.07;71.35;148437.89;1789010;79;22246;-61
2022/02/03 14:28:43;;;;;;;55.12;25.40;;;;;;;3.00;72.24;148419.84;1789680;79;21128;-62
2022/02/03 14:31:10;;;;;;;138.50;57.13;;;;;;;2.99;72.52;148417.27;1792221;78;21028;-61
2022/02/03 14:33:40;;;;;;;42.80;20.23;;;;;;;2.96;72.69;148409.48;1781012;79;21081;-62
2022/02/03 14:36:09;;;;;;;97.47;35.28;;;;;;;2.94;73.09;148405.64;1757527;81;21021;-62
2022/02/03 14:38:43;;;;;;;66.22;24.20;;;;;;;2.92;73.25;148399.17;1721330;82;21139;-62
2022/02/03 14:43:41;;;;;;;38.55;17.10;;;;;;;2.86;73.54;148386.28;1734222;80;21093;-62
2022/02/03 14:46:13;;;;;;;16.77;8.25;;;;;;;2.83;73.75;148378.55;1718489;80;21084;-62
2022/02/03 14:48:39;;;;;;;15.23;7.53;;;;;;;2.80;73.94;148370.81;1750924;79;21502;-63
2022/02/03 14:51:21;;;;;;;13.55;6.97;;;;;;;2.78;74.06;148364.34;1754008;79;21507;-62
2022/02/03 14:53:54;;;;;;;15.88;6.83;;;;;;;2.75;74.29;148357.88;1720248;81;21454;-62
2022/02/03 14:59:03;;;;;;;11.28;6.50;;;;;;;2.71;74.94;148347.56;1789196;78;28107;-62
2022/02/03 15:01:32;;;;;;;14.47;6.60;;;;;;;2.70;75.19;148346.31;1788187;79;21443;-61
2022/02/03 15:04:03;;;;;;;13.38;6.20;;;;;;;2.69;75.41;148343.73;1789556;78;21114;-61
2022/02/03 15:06:43;;;;;;;13.85;7.03;;;;;;;2.70;75.59;148345.00;1786716;78;21119;-61
2022/02/03 15:12:00;;;;;;;14.30;6.75;;;;;;;2.70;75.66;148346.31;1742306;79;21109;-61
2022/02/03 15:14:10;;;;;;;54.75;23.15;;;;;;;2.68;75.90;148339.84;1777578;78;21067;-61
2022/02/03 15:16:37;;;;;;;123.00;47.73;;;;;;;2.65;76.41;148332.11;1754832;79;21470;-63
2022/02/03 15:19:04;;;;;;;251.15;82.92;;;;;;;2.61;76.82;148321.80;1753214;79;21504;-62
2022/02/03 15:21:31;;;;;;;217.90;82.78;;;;;;;2.57;77.06;148314.06;1749922;80;21092;-63
2022/02/03 15:23:58;;;;;;;215.65;85.50;;;;;;;2.53;77.27;148303.70;1756959;79;21070;-61
2022/02/03 15:26:24;;;;;;;173.97;73.60;;;;;;;2.51;77.72;148298.56;1727881;80;21115;-62
2022/02/03 15:28:53;;;;;;;196.72;89.20;;;;;;;2.49;77.90;148293.41;1727216;81;21016;-61
2022/02/03 15:31:23;;;;;;;215.15;87.37;;;;;;;2.45;78.24;148283.09;1728293;81;21528;-63
2022/02/03 15:33:57;;;;;;;123.02;51.08;;;;;;;2.44;78.61;148280.52;1723808;81;21014;-61
2022/02/03 15:36:18;;;;;;;49.25;21.10;;;;;;;2.41;78.89;148272.78;1754198;79;21123;-61
2022/02/03 15:38:48;;;;;;;194.87;86.30;;;;;;;2.41;79.57;148272.78;1752213;80;21112;-62
2022/02/03 15:41:25;;;;;;;211.03;91.87;;;;;;;2.39;79.79;148267.63;1734341;80;21795;-62
2022/02/03 15:43:51;;;;;;;212.15;96.20;;;;;;;2.36;80.22;148259.91;1757034;79;20997;-61
2022/02/03 15:46:20;;;;;;;161.90;72.08;;;;;;;2.35;80.47;148257.33;1754433;79;21052;-61
2022/02/03 15:49:01;;;;;;;147.82;67.05;;;;;;;2.32;81.00;148249.55;1728281;80;21628;-60
2022/02/03 15:56:13;;;;;;;164.28;75.03;;;;;;;2.27;81.32;148239.25;1726722;81;21413;-62
2022/02/03 15:56:54;;;;;;;212.97;95.03;;;;;;;2.28;81.52;148241.81;1723999;81;21097;-61
2022/02/03 16:00:17;;;;;;;133.90;56.20;;;;;;;2.29;81.60;148244.39;1720037;82;21038;-62
2022/02/03 16:02:08;;;;;;;167.60;76.28;;;;;;;2.33;81.75;148253.44;1745749;79;21064;-62
2022/02/03 16:17:39;;;;;;;126.87;55.30;;;;;;;2.38;82.66;148265.06;1751391;80;21039;-61
2022/02/03 16:20:17;;;;;;;103.07;42.25;;;;;;;2.36;82.59;148259.91;1753359;80;21855;-62
2022/02/03 16:22:59;;;;;;;131.80;58.63;;;;;;;2.34;82.69;148256.02;1751044;80;21104;-61
2022/02/03 16:54:35;;;;;;;59.60;26.33;;;;;;;2.22;85.04;148226.36;1789836;78;21096;-63
2022/02/03 16:57:11;;;;;;;120.67;54.00;;;;;;;2.23;85.41;148227.67;1790382;78;21356;-61
2022/02/03 16:59:35;;;;;;;117.90;56.13;;;;;;;2.20;85.72;148221.20;1787175;79;21498;-60
2022/02/03 17:02:00;;;;;;;77.90;38.10;;;;;;;2.18;85.75;148216.06;1793359;78;21507;-61
2022/02/03 17:04:27;;;;;;;59.18;27.82;;;;;;;2.17;85.97;148213.47;1796373;78;21044;-61
2022/02/03 17:06:54;;;;;;;115.67;50.05;;;;;;;2.17;86.22;148212.16;1781100;78;21493;-60
2022/02/03 17:09:20;;;;;;;99.03;43.15;;;;;;;2.14;86.47;148205.75;1788295;78;21050;-63
2022/02/03 17:11:47;;;;;;;175.12;79.25;;;;;;;2.10;86.68;148195.41;1791259;78;21670;-62
2022/02/03 17:14:14;;;;;;;86.50;39.83;;;;;;;2.07;86.97;148187.67;1793171;79;21102;-61
2022/02/03 17:16:41;;;;;;;32.33;14.53;;;;;;;2.08;87.23;148190.25;1790038;79;21504;-61
2022/02/03 17:19:08;;;;;;;25.95;11.43;;;;;;;2.03;87.63;148177.36;1784698;79;21069;-61
2022/02/03 17:21:34;;;;;;;24.87;12.05;;;;;;;1.97;87.64;148164.48;1771831;79;21537;-61
2022/02/03 17:24:02;;;;;;;39.67;17.60;;;;;;;1.93;87.77;148154.17;1755885;80;21949;-61
2022/02/03 17:26:37;;;;;;;94.62;40.65;;;;;;;1.90;88.24;148146.45;1755560;80;21067;-62
2022/02/03 17:29:12;;;;;;;68.42;28.15;;;;;;;1.90;88.37;148146.45;1760579;80;21463;-62
2022/02/03 17:31:53;;;;;;;63.00;27.17;;;;;;;1.89;88.49;148143.88;1727564;80;21081;-62
2022/02/03 18:31:10;;;;;;;22.73;10.10;;;;;;;1.48;86.79;148040.77;1691233;82;21157;-63
2022/02/03 18:34:07;;;;;;;;;;;;;;;1.48;86.13;148040.77;1753253;79;21090;-61
2022/02/03 18:55:14;;;;;;;24.05;10.88;;;;;;;1.44;86.04;148031.73;1780638;78;21054;-62
2022/02/03 18:57:45;;;;;;;20.82;9.68;;;;;;;1.43;86.12;148030.42;1773102;78;21263;-62
2022/02/03 19:22:53;;;;;;;16.48;8.10;;;;;;;1.37;86.97;148014.97;1786311;78;21052;-60
2022/02/03 20:05:06;;;;;;;16.27;7.30;;;;;;;1.00;85.63;147922.25;1798701;78;21507;-61
2022/02/03 20:07:42;;;;;;;28.40;9.08;;;;;;;0.98;85.64;147917.06;1793270;78;21060;-61
2022/02/03 20:12:24;;;;;;;18.07;8.03;;;;;;;0.96;85.06;147911.91;1796619;78;21063;-62
2022/02/03 20:14:50;;;;;;;18.02;6.60;;;;;;;0.96;84.92;147911.91;1800102;78;21531;-62
2022/02/03 20:17:19;;;;;;;16.50;7.83;;;;;;;0.94;83.83;147908.06;1795955;78;21076;-62
2022/02/03 20:19:47;;;;;;;14.47;6.10;;;;;;;0.93;83.67;147904.19;1800594;78;21037;-62
2022/02/03 20:22:16;;;;;;;16.57;6.80;;;;;;;0.90;82.87;147896.47;1801100;77;21053;-61
2022/02/03 20:24:43;;;;;;;12.13;5.75;;;;;;;0.84;82.84;147883.59;1804554;78;21091;-62
2022/02/03 20:27:09;;;;;;;55.83;23.87;;;;;;;0.81;83.02;147875.88;1802068;78;21511;-61
2022/02/03 20:29:36;;;;;;;22.77;8.53;;;;;;;0.78;83.18;147868.16;1779928;78;21144;-61
2022/02/03 20:32:04;;;;;;;12.85;6.50;;;;;;;0.75;83.51;147860.39;1801310;78;21065;-61
2022/02/03 20:34:32;;;;;;;12.73;5.60;;;;;;;0.73;83.60;147855.25;1804022;78;21520;-61
2022/02/03 20:36:58;;;;;;;13.83;6.33;;;;;;;0.73;83.56;147855.25;1808390;78;21108;-61
2022/02/03 20:39:25;;;;;;;15.65;6.05;;;;;;;0.70;83.44;147848.84;1802049;78;21057;-62
2022/02/03 20:41:52;;;;;;;11.78;5.47;;;;;;;0.68;83.43;147842.38;1812713;78;21530;-62
2022/02/03 20:44:19;;;;;;;14.45;5.70;;;;;;;0.64;82.55;147832.08;1812275;77;21074;-60
2022/02/03 20:46:46;;;;;;;15.48;5.72;;;;;;;0.59;81.89;147820.48;1812835;77;21080;-63
2022/02/03 20:49:13;;;;;;;9.98;5.30;;;;;;;0.55;80.82;147810.19;1801931;78;21069;-61
2022/02/03 20:51:40;;;;;;;11.78;5.33;;;;;;;0.49;80.34;147796.02;1801998;77;21531;-62
2022/02/03 20:54:07;;;;;;;15.53;5.62;;;;;;;0.41;79.68;147775.44;1805665;78;21123;-61
2022/02/03 20:56:33;;;;;;;13.28;6.40;;;;;;;0.36;79.10;147762.56;1806739;78;21081;-62
2022/02/03 20:59:04;;;;;;;11.38;4.22;;;;;;;0.31;77.70;147750.97;1805961;77;21516;-61
2022/02/03 21:01:33;;;;;;;20.05;8.93;;;;;;;0.25;75.64;147736.80;1807822;77;20981;-62
2022/02/03 21:04:07;;;;;;;12.00;5.15;;;;;;;0.16;72.11;147713.66;1803392;78;21063;-60
2022/02/03 21:06:26;;;;;;;17.40;7.78;;;;;;;0.07;70.87;147690.45;1799797;77;21564;-61
2022/02/03 21:08:53;;;;;;;10.25;4.83;;;;;;;-0.01;70.17;147672.45;1743024;80;21546;-61
2022/02/03 21:11:19;;;;;;;11.93;4.40;;;;;;;-0.07;70.69;147657.02;1754224;80;21119;-62
2022/02/03 21:13:46;;;;;;;10.85;3.95;;;;;;;-0.11;70.33;147646.73;1776392;78;21119;-62
2022/02/03 21:16:14;;;;;;;7.15;3.95;;;;;;;-0.13;70.36;147640.28;1754292;80;21071;-62
2022/02/03 21:18:44;;;;;;;5.75;3.27;;;;;;;-0.14;70.76;147638.97;1769213;78;20998;-61
2022/02/03 21:21:10;;;;;;;6.65;3.42;;;;;;;-0.16;70.32;147635.14;1770613;78;21072;-61
2022/02/03 21:23:37;;;;;;;23.12;9.88;;;;;;;-0.17;69.43;147632.56;1758275;80;21583;-61
2022/02/03 21:26:07;;;;;;;14.05;4.92;;;;;;;-0.23;69.58;147617.09;1761204;80;21025;-61
2022/02/03 21:28:35;;;;;;;17.25;7.62;;;;;;;-0.28;69.79;147602.97;1793657;78;21459;-60
2022/02/03 21:31:04;;;;;;;16.95;6.03;;;;;;;-0.32;70.45;147595.27;1793417;79;22373;-60
2022/02/03 21:33:34;;;;;;;76.87;32.67;;;;;;;-0.34;71.01;147590.06;1794252;79;21054;-61
2022/02/03 21:36:12;;;;;;;185.43;79.90;;;;;;;-0.36;72.06;147583.67;1798089;78;21505;-61
2022/02/03 21:38:41;;;;;;;123.87;50.52;;;;;;;-0.39;72.95;147575.95;1752658;80;21477;-60
2022/02/03 21:41:11;;;;;;;80.57;34.50;;;;;;;-0.40;73.76;147574.64;1761154;81;21035;-59
2022/02/03 21:43:38;;;;;;;170.57;68.40;;;;;;;-0.40;73.92;147574.64;1749085;81;21156;-61